SAM3111 EGUN-KADW
Flight info
| Callsign | SAM3111 |
|---|---|
| Flight time | N/A |
| Altitude | 36000 |
| Route | EBOTO UN601 BOLBI L60 PENIL M144 BAGSO DCT MALOT/M076F380 DCT 53N020W 53N030W 52N040W 50N050W DCT ELSIR/N0433F400 N398B TUSKY Q475 COPLY Q75 BIZEX Q133 MGERK DCT LAFLN SPISY2 |
| Aircraft | B737/M-SDE2E3FGHIRWXY/LB1 |
Departure
| Time | 2026-04-29 21:10 |
|---|---|
| Airport | RAF Mildenhall (EGUN) |
Arrival
| Time | N/A |
|---|---|
| Airport | Joint Base Andrews (KADW) |
| Time | Latitude | Longitude | Altitude | Speed | Heading |
|---|---|---|---|---|---|
| 2026-04-29 20:57 | 52.36765 | 0.48007 | 28 ft | 0 kts | 140° |
| 2026-04-29 21:03 | 52.36762 | 0.48010 | 28 ft | 4 kts | 149° |
| 2026-04-29 21:04 | 52.36746 | 0.47950 | 28 ft | 12 kts | 270° |
| 2026-04-29 21:04 | 52.36739 | 0.47762 | 27 ft | 18 kts | 272° |
| 2026-04-29 21:04 | 52.36760 | 0.47567 | 27 ft | 17 kts | 307° |
| 2026-04-29 21:04 | 52.36792 | 0.47511 | 26 ft | 0 kts | 313° |
| 2026-04-29 21:05 | 52.36795 | 0.47499 | 26 ft | 4 kts | 290° |
| 2026-04-29 21:05 | 52.36780 | 0.47448 | 26 ft | 6 kts | 224° |
| 2026-04-29 21:05 | 52.36748 | 0.47399 | 26 ft | 6 kts | 223° |
| 2026-04-29 21:05 | 52.36713 | 0.47350 | 30 ft | 7 kts | 221° |
| 2026-04-29 21:06 | 52.36676 | 0.47297 | 29 ft | 7 kts | 221° |
| 2026-04-29 21:06 | 52.36640 | 0.47245 | 29 ft | 7 kts | 223° |
| 2026-04-29 21:06 | 52.36597 | 0.47207 | 28 ft | 7 kts | 204° |
| 2026-04-29 21:06 | 52.36590 | 0.47156 | 29 ft | 5 kts | 275° |
| 2026-04-29 21:07 | 52.36593 | 0.47101 | 27 ft | 5 kts | 273° |
| 2026-04-29 21:07 | 52.36584 | 0.47048 | 29 ft | 5 kts | 254° |
| 2026-04-29 21:07 | 52.36575 | 0.46996 | 25 ft | 5 kts | 254° |
| 2026-04-29 21:07 | 52.36567 | 0.46944 | 25 ft | 5 kts | 254° |
| 2026-04-29 21:08 | 52.36561 | 0.46893 | 28 ft | 5 kts | 271° |
| 2026-04-29 21:08 | 52.36557 | 0.46847 | 25 ft | 0 kts | 251° |
| 2026-04-29 21:08 | 52.36556 | 0.46845 | 25 ft | 3 kts | 251° |
| 2026-04-29 21:08 | 52.36523 | 0.46765 | 26 ft | 9 kts | 212° |
| 2026-04-29 21:09 | 52.36468 | 0.46786 | 26 ft | 10 kts | 114° |
| 2026-04-29 21:09 | 52.36449 | 0.46897 | 28 ft | 13 kts | 104° |
| 2026-04-29 21:09 | 52.36357 | 0.47528 | 25 ft | 101 kts | 103° |
| 2026-04-29 21:09 | 52.36135 | 0.49031 | 114 ft | 166 kts | 103° |
| 2026-04-29 21:10 | 52.35688 | 0.50799 | 1193 ft | 167 kts | 131° |
| 2026-04-29 21:10 | 52.34513 | 0.51531 | 1888 ft | 211 kts | 178° |
| 2026-04-29 21:10 | 52.33054 | 0.50672 | 2406 ft | 241 kts | 216° |
| 2026-04-29 21:10 | 52.32116 | 0.48286 | 2912 ft | 267 kts | 252° |
| 2026-04-29 21:11 | 52.32139 | 0.45115 | 3260 ft | 294 kts | 290° |
| 2026-04-29 21:11 | 52.32960 | 0.42049 | 4174 ft | 295 kts | 298° |
| 2026-04-29 21:11 | 52.33822 | 0.38992 | 5147 ft | 295 kts | 294° |
| 2026-04-29 21:11 | 52.34506 | 0.35817 | 6099 ft | 298 kts | 286° |
| 2026-04-29 21:12 | 52.34989 | 0.32501 | 6970 ft | 302 kts | 281° |
| 2026-04-29 21:12 | 52.35332 | 0.29083 | 7834 ft | 305 kts | 277° |
| 2026-04-29 21:12 | 52.35563 | 0.25653 | 8674 ft | 308 kts | 274° |
| 2026-04-29 21:12 | 52.35718 | 0.22141 | 9522 ft | 311 kts | 272° |
| 2026-04-29 21:13 | 52.35819 | 0.18589 | 10336 ft | 314 kts | 271° |
| 2026-04-29 21:13 | 52.35884 | 0.14969 | 10876 ft | 328 kts | 270° |
| 2026-04-29 21:13 | 52.35928 | 0.11072 | 11068 ft | 353 kts | 270° |
| 2026-04-29 21:13 | 52.35959 | 0.06915 | 11271 ft | 377 kts | 269° |
| 2026-04-29 21:14 | 52.35978 | 0.02527 | 11667 ft | 392 kts | 269° |
| 2026-04-29 21:14 | 52.35989 | -0.01970 | 12367 ft | 397 kts | 269° |
| 2026-04-29 21:14 | 52.35995 | -0.06494 | 13171 ft | 399 kts | 268° |
| 2026-04-29 21:14 | 52.35999 | -0.11058 | 13895 ft | 403 kts | 268° |
| 2026-04-29 21:15 | 52.36000 | -0.15672 | 14576 ft | 408 kts | 268° |
| 2026-04-29 21:15 | 52.35999 | -0.20344 | 15238 ft | 413 kts | 268° |
| 2026-04-29 21:15 | 52.35998 | -0.25070 | 15933 ft | 416 kts | 268° |
| 2026-04-29 21:15 | 52.35994 | -0.29828 | 16575 ft | 421 kts | 268° |
| 2026-04-29 21:16 | 52.35989 | -0.34581 | 17191 ft | 425 kts | 268° |
| 2026-04-29 21:16 | 52.35983 | -0.39445 | 17803 ft | 429 kts | 268° |
| 2026-04-29 21:16 | 52.35974 | -0.44349 | 18388 ft | 433 kts | 268° |
| 2026-04-29 21:16 | 52.35964 | -0.49287 | 18993 ft | 436 kts | 268° |
| 2026-04-29 21:17 | 52.35952 | -0.54263 | 19596 ft | 439 kts | 268° |
| 2026-04-29 21:17 | 52.35938 | -0.59284 | 20206 ft | 441 kts | 268° |
| 2026-04-29 21:17 | 52.36056 | -0.64327 | 20765 ft | 445 kts | 274° |
| 2026-04-29 21:17 | 52.36591 | -0.69341 | 21283 ft | 451 kts | 287° |
| 2026-04-29 21:18 | 52.38067 | -0.73880 | 21751 ft | 456 kts | 310° |
| 2026-04-29 21:18 | 52.40447 | -0.77259 | 22270 ft | 455 kts | 332° |
| 2026-04-29 21:18 | 52.43365 | -0.79236 | 22773 ft | 454 kts | 345° |
| 2026-04-29 21:18 | 52.46407 | -0.80715 | 23202 ft | 458 kts | 345° |
| 2026-04-29 21:19 | 52.49356 | -0.82579 | 23558 ft | 465 kts | 333° |
| 2026-04-29 21:19 | 52.52132 | -0.85373 | 24007 ft | 469 kts | 327° |
| 2026-04-29 21:19 | 52.54826 | -0.88397 | 24470 ft | 471 kts | 327° |
| 2026-04-29 21:19 | 52.57620 | -0.91271 | 24877 ft | 474 kts | 331° |
| 2026-04-29 21:20 | 52.60512 | -0.93923 | 25262 ft | 477 kts | 332° |
| 2026-04-29 21:20 | 52.63419 | -0.96591 | 25654 ft | 480 kts | 331° |
| 2026-04-29 21:20 | 52.66311 | -0.99370 | 26044 ft | 482 kts | 330° |
| 2026-04-29 21:20 | 52.69193 | -1.02253 | 26412 ft | 485 kts | 329° |
| 2026-04-29 21:21 | 52.72040 | -1.05129 | 26750 ft | 488 kts | 330° |
| 2026-04-29 21:21 | 52.74951 | -1.08054 | 27093 ft | 491 kts | 330° |
| 2026-04-29 21:21 | 52.77871 | -1.10984 | 27447 ft | 492 kts | 330° |
| 2026-04-29 21:21 | 52.80809 | -1.13937 | 27781 ft | 495 kts | 330° |
| 2026-04-29 21:22 | 52.83754 | -1.16901 | 28088 ft | 497 kts | 330° |
| 2026-04-29 21:22 | 52.86718 | -1.19892 | 28385 ft | 500 kts | 330° |
| 2026-04-29 21:22 | 52.89695 | -1.22901 | 28722 ft | 501 kts | 329° |
| 2026-04-29 21:22 | 52.92663 | -1.25907 | 29170 ft | 499 kts | 329° |
| 2026-04-29 21:23 | 52.95618 | -1.28903 | 29630 ft | 496 kts | 329° |
| 2026-04-29 21:23 | 52.98561 | -1.31889 | 30048 ft | 495 kts | 329° |
| 2026-04-29 21:23 | 53.01501 | -1.34872 | 30388 ft | 495 kts | 329° |
| 2026-04-29 21:23 | 53.03448 | -1.36849 | 30610 ft | 495 kts | 329° |
| 2026-04-29 21:24 | 53.07344 | -1.40808 | 31089 ft | 494 kts | 329° |
| 2026-04-29 21:24 | 53.10271 | -1.43788 | 31445 ft | 493 kts | 329° |
| 2026-04-29 21:24 | 53.12243 | -1.45800 | 31662 ft | 492 kts | 329° |
| 2026-04-29 21:24 | 53.16104 | -1.49747 | 32096 ft | 492 kts | 329° |
| 2026-04-29 21:25 | 53.19031 | -1.52746 | 32390 ft | 492 kts | 329° |
| 2026-04-29 21:25 | 53.20999 | -1.54766 | 32589 ft | 491 kts | 329° |
| 2026-04-29 21:25 | 53.23867 | -1.57714 | 32896 ft | 490 kts | 329° |
| 2026-04-29 21:25 | 53.26773 | -1.60702 | 33201 ft | 489 kts | 329° |
| 2026-04-29 21:26 | 53.29663 | -1.63675 | 33514 ft | 487 kts | 329° |
| 2026-04-29 21:26 | 53.32551 | -1.66651 | 33811 ft | 487 kts | 329° |
| 2026-04-29 21:26 | 53.35431 | -1.69622 | 34066 ft | 486 kts | 329° |
| 2026-04-29 21:26 | 53.38309 | -1.72596 | 34299 ft | 486 kts | 329° |
| 2026-04-29 21:27 | 53.41189 | -1.75577 | 34523 ft | 486 kts | 329° |
| 2026-04-29 21:27 | 53.43996 | -1.78751 | 34763 ft | 486 kts | 319° |
| 2026-04-29 21:27 | 53.46172 | -1.83031 | 34931 ft | 484 kts | 297° |
| 2026-04-29 21:27 | 53.47415 | -1.88234 | 35140 ft | 478 kts | 280° |
| 2026-04-29 21:28 | 53.47933 | -1.93719 | 35320 ft | 475 kts | 273° |
| 2026-04-29 21:28 | 53.48238 | -1.99244 | 35502 ft | 475 kts | 272° |
| 2026-04-29 21:28 | 53.48599 | -2.04772 | 35715 ft | 476 kts | 276° |
| 2026-04-29 21:28 | 53.49125 | -2.10252 | 35910 ft | 476 kts | 277° |
| 2026-04-29 21:29 | 53.49659 | -2.15672 | 36068 ft | 476 kts | 277° |
| 2026-04-29 21:29 | 53.50162 | -2.21173 | 36253 ft | 475 kts | 276° |
| 2026-04-29 21:29 | 53.50636 | -2.26662 | 36363 ft | 477 kts | 276° |
| 2026-04-29 21:30 | 53.51551 | -2.37714 | 36370 ft | 476 kts | 275° |
| 2026-04-29 21:30 | 53.52451 | -2.48676 | 36366 ft | 474 kts | 275° |
| 2026-04-29 21:31 | 53.53351 | -2.59636 | 36363 ft | 473 kts | 275° |
| 2026-04-29 21:31 | 53.54247 | -2.70640 | 36363 ft | 472 kts | 275° |
| 2026-04-29 21:32 | 53.55122 | -2.81512 | 36362 ft | 472 kts | 275° |
| 2026-04-29 21:32 | 53.55992 | -2.92474 | 36355 ft | 473 kts | 275° |
| 2026-04-29 21:33 | 53.56856 | -3.03467 | 36347 ft | 474 kts | 275° |
| 2026-04-29 21:33 | 53.57710 | -3.14475 | 36348 ft | 475 kts | 275° |
| 2026-04-29 21:34 | 53.58557 | -3.25523 | 36345 ft | 477 kts | 275° |
| 2026-04-29 21:34 | 53.59391 | -3.36540 | 36342 ft | 478 kts | 274° |
| 2026-04-29 21:35 | 53.60223 | -3.47666 | 36334 ft | 479 kts | 274° |
| 2026-04-29 21:35 | 53.61049 | -3.58840 | 36318 ft | 480 kts | 274° |
| 2026-04-29 21:36 | 53.61850 | -3.70025 | 36313 ft | 481 kts | 272° |
| 2026-04-29 21:36 | 53.62362 | -3.81262 | 36316 ft | 480 kts | 269° |
| 2026-04-29 21:37 | 53.62703 | -3.92416 | 36311 ft | 479 kts | 270° |
| 2026-04-29 21:37 | 53.63159 | -4.03619 | 36316 ft | 479 kts | 270° |
| 2026-04-29 21:38 | 53.63601 | -4.14833 | 36308 ft | 479 kts | 270° |
| 2026-04-29 21:38 | 53.64015 | -4.26023 | 36300 ft | 478 kts | 270° |
| 2026-04-29 21:39 | 53.64421 | -4.37217 | 36310 ft | 478 kts | 270° |
| 2026-04-29 21:39 | 53.64812 | -4.48392 | 36296 ft | 477 kts | 270° |
| 2026-04-29 21:40 | 53.65194 | -4.59539 | 36298 ft | 476 kts | 270° |
| 2026-04-29 21:40 | 53.65566 | -4.70683 | 36302 ft | 476 kts | 269° |
| 2026-04-29 21:41 | 53.65930 | -4.81749 | 36301 ft | 475 kts | 269° |
| 2026-04-29 21:41 | 53.66292 | -4.92871 | 36300 ft | 475 kts | 269° |
| 2026-04-29 21:42 | 53.66659 | -5.03980 | 36302 ft | 474 kts | 269° |
| 2026-04-29 21:42 | 53.67014 | -5.15089 | 36319 ft | 474 kts | 269° |
| 2026-04-29 21:43 | 53.67342 | -5.26186 | 36297 ft | 473 kts | 269° |
| 2026-04-29 21:43 | 53.67651 | -5.37274 | 36302 ft | 473 kts | 269° |
| 2026-04-29 21:44 | 53.67957 | -5.48375 | 36301 ft | 473 kts | 269° |
| 2026-04-29 21:44 | 53.67924 | -5.59436 | 36293 ft | 470 kts | 263° |
| 2026-04-29 21:45 | 53.67480 | -5.70437 | 36293 ft | 469 kts | 261° |
| 2026-04-29 21:45 | 53.67010 | -5.81413 | 36289 ft | 470 kts | 262° |
| 2026-04-29 21:46 | 53.66594 | -5.92419 | 36286 ft | 470 kts | 262° |
| 2026-04-29 21:46 | 53.66207 | -6.03352 | 36280 ft | 470 kts | 262° |
| 2026-04-29 21:47 | 53.65816 | -6.14351 | 36274 ft | 470 kts | 262° |
| 2026-04-29 21:47 | 53.65412 | -6.25352 | 36278 ft | 470 kts | 262° |
| 2026-04-29 21:48 | 53.64997 | -6.36367 | 36269 ft | 470 kts | 262° |
| 2026-04-29 21:48 | 53.64570 | -6.47376 | 36268 ft | 470 kts | 262° |
| 2026-04-29 21:49 | 53.64135 | -6.58303 | 36268 ft | 470 kts | 262° |
| 2026-04-29 21:49 | 53.63688 | -6.69303 | 36273 ft | 471 kts | 262° |
| 2026-04-29 21:50 | 53.63230 | -6.80313 | 36276 ft | 471 kts | 261° |
| 2026-04-29 21:50 | 53.62760 | -6.91344 | 36280 ft | 472 kts | 261° |
| 2026-04-29 21:51 | 53.62278 | -7.02386 | 36277 ft | 473 kts | 261° |
| 2026-04-29 21:51 | 53.61541 | -7.18939 | 36278 ft | 474 kts | 261° |
| 2026-04-29 21:52 | 53.61034 | -7.30030 | 36272 ft | 475 kts | 261° |
| 2026-04-29 21:52 | 53.60514 | -7.41155 | 36267 ft | 477 kts | 261° |
| 2026-04-29 21:53 | 53.59984 | -7.52294 | 36268 ft | 477 kts | 261° |
| 2026-04-29 21:53 | 53.59441 | -7.63453 | 36270 ft | 478 kts | 261° |
| 2026-04-29 21:54 | 53.58889 | -7.74609 | 36265 ft | 479 kts | 261° |
| 2026-04-29 21:54 | 53.58327 | -7.85727 | 36257 ft | 480 kts | 261° |
| 2026-04-29 21:55 | 53.57752 | -7.96918 | 36258 ft | 479 kts | 261° |
| 2026-04-29 21:55 | 53.57167 | -8.08091 | 36254 ft | 480 kts | 260° |
| 2026-04-29 21:56 | 53.56571 | -8.19283 | 36263 ft | 479 kts | 260° |
| 2026-04-29 21:56 | 53.55966 | -8.30470 | 36251 ft | 479 kts | 260° |
| 2026-04-29 21:57 | 53.55348 | -8.41637 | 36252 ft | 480 kts | 260° |
| 2026-04-29 21:57 | 53.54723 | -8.52741 | 36242 ft | 480 kts | 260° |
| 2026-04-29 21:58 | 53.54086 | -8.63898 | 36233 ft | 479 kts | 260° |
| 2026-04-29 21:58 | 53.53437 | -8.75064 | 36233 ft | 479 kts | 260° |
| 2026-04-29 21:59 | 53.52779 | -8.86221 | 36231 ft | 479 kts | 260° |
| 2026-04-29 21:59 | 53.52111 | -8.97361 | 36230 ft | 479 kts | 259° |
| 2026-04-29 22:00 | 53.51433 | -9.08499 | 36237 ft | 478 kts | 259° |
| 2026-04-29 22:00 | 53.50745 | -9.19618 | 36241 ft | 479 kts | 259° |
| 2026-04-29 22:01 | 53.50050 | -9.30678 | 36242 ft | 479 kts | 259° |
| 2026-04-29 22:01 | 53.49341 | -9.41808 | 36242 ft | 479 kts | 259° |
| 2026-04-29 22:02 | 53.48620 | -9.52956 | 36240 ft | 480 kts | 259° |
| 2026-04-29 22:02 | 53.47888 | -9.64106 | 36245 ft | 481 kts | 259° |
| 2026-04-29 22:03 | 53.47143 | -9.75292 | 36236 ft | 482 kts | 259° |
| 2026-04-29 22:03 | 53.46387 | -9.86486 | 36229 ft | 483 kts | 259° |
| 2026-04-29 22:04 | 53.45619 | -9.97687 | 36230 ft | 483 kts | 259° |
| 2026-04-29 22:04 | 53.44846 | -10.08822 | 36225 ft | 483 kts | 259° |
| 2026-04-29 22:05 | 53.44057 | -10.20020 | 36222 ft | 483 kts | 259° |
| 2026-04-29 22:06 | 53.42854 | -10.36810 | 36224 ft | 483 kts | 259° |
| 2026-04-29 22:06 | 53.42040 | -10.47998 | 36218 ft | 483 kts | 259° |
| 2026-04-29 22:07 | 53.41216 | -10.59164 | 36221 ft | 483 kts | 259° |
| 2026-04-29 22:07 | 53.40384 | -10.70295 | 36213 ft | 483 kts | 258° |
| 2026-04-29 22:08 | 53.39537 | -10.81476 | 36214 ft | 483 kts | 258° |
| 2026-04-29 22:08 | 53.38680 | -10.92642 | 36209 ft | 483 kts | 258° |
| 2026-04-29 22:09 | 53.37814 | -11.03806 | 36213 ft | 483 kts | 258° |
| 2026-04-29 22:09 | 53.36942 | -11.14895 | 36218 ft | 483 kts | 258° |
| 2026-04-29 22:10 | 53.36053 | -11.26070 | 36209 ft | 484 kts | 258° |
| 2026-04-29 22:10 | 53.35307 | -11.35343 | 36213 ft | 484 kts | 258° |
| 2026-04-29 22:11 | 53.34243 | -11.48410 | 36209 ft | 484 kts | 258° |
| 2026-04-29 22:11 | 53.33478 | -11.57688 | 36214 ft | 484 kts | 258° |
| 2026-04-29 22:12 | 53.32549 | -11.68848 | 36214 ft | 485 kts | 258° |
| 2026-04-29 22:12 | 53.31606 | -11.80032 | 36212 ft | 486 kts | 258° |
| 2026-04-29 22:13 | 53.30654 | -11.91209 | 36212 ft | 486 kts | 258° |
| 2026-04-29 22:13 | 53.29692 | -12.02369 | 36211 ft | 486 kts | 258° |
| 2026-04-29 22:14 | 53.28715 | -12.13579 | 36207 ft | 487 kts | 259° |
| 2026-04-29 22:14 | 53.27728 | -12.24772 | 36216 ft | 487 kts | 259° |
| 2026-04-29 22:15 | 53.26731 | -12.35970 | 36211 ft | 487 kts | 259° |
| 2026-04-29 22:15 | 53.25725 | -12.47125 | 36213 ft | 488 kts | 259° |
| 2026-04-29 22:16 | 53.24704 | -12.58332 | 36211 ft | 489 kts | 259° |
| 2026-04-29 22:16 | 53.23671 | -12.69547 | 36212 ft | 489 kts | 259° |
| 2026-04-29 22:17 | 53.22628 | -12.80762 | 36213 ft | 489 kts | 259° |
| 2026-04-29 22:17 | 53.21573 | -12.91992 | 36213 ft | 489 kts | 259° |
| 2026-04-29 22:18 | 53.20507 | -13.03211 | 36210 ft | 490 kts | 259° |
| 2026-04-29 22:18 | 53.19436 | -13.14369 | 36213 ft | 490 kts | 259° |
| 2026-04-29 22:19 | 53.18347 | -13.25587 | 36211 ft | 490 kts | 259° |
| 2026-04-29 22:19 | 53.17244 | -13.36844 | 36213 ft | 491 kts | 259° |
| 2026-04-29 22:20 | 53.16134 | -13.48070 | 36213 ft | 491 kts | 259° |
| 2026-04-29 22:20 | 53.15018 | -13.59233 | 36205 ft | 491 kts | 259° |
| 2026-04-29 22:21 | 53.13883 | -13.70469 | 36202 ft | 492 kts | 259° |
| 2026-04-29 22:21 | 53.12737 | -13.81700 | 36205 ft | 492 kts | 259° |
| 2026-04-29 22:22 | 53.11581 | -13.92942 | 36200 ft | 492 kts | 259° |
| 2026-04-29 22:22 | 53.10421 | -14.04099 | 36201 ft | 492 kts | 259° |
| 2026-04-29 22:23 | 53.09242 | -14.15328 | 36207 ft | 492 kts | 260° |
| 2026-04-29 22:23 | 53.08052 | -14.26570 | 36203 ft | 493 kts | 259° |
| 2026-04-29 22:24 | 53.06853 | -14.37792 | 36203 ft | 493 kts | 259° |
| 2026-04-29 22:24 | 53.05642 | -14.49017 | 36202 ft | 493 kts | 259° |
| 2026-04-29 22:25 | 53.04427 | -14.60173 | 36206 ft | 492 kts | 259° |
| 2026-04-29 22:25 | 53.03197 | -14.71358 | 36201 ft | 492 kts | 259° |
| 2026-04-29 22:26 | 53.01957 | -14.82540 | 36203 ft | 492 kts | 259° |
| 2026-04-29 22:26 | 53.00711 | -14.93697 | 36199 ft | 491 kts | 259° |
| 2026-04-29 22:27 | 52.99731 | -15.04905 | 36197 ft | 490 kts | 266° |
| 2026-04-29 22:27 | 52.99660 | -15.16212 | 36201 ft | 489 kts | 274° |
| 2026-04-29 22:28 | 53.00172 | -15.27468 | 36195 ft | 488 kts | 276° |
| 2026-04-29 22:28 | 53.00676 | -15.38709 | 36195 ft | 488 kts | 274° |
| 2026-04-29 22:29 | 53.00971 | -15.49909 | 36192 ft | 488 kts | 273° |
| 2026-04-29 22:29 | 53.01151 | -15.61193 | 36195 ft | 488 kts | 272° |
| 2026-04-29 22:30 | 53.01305 | -15.72470 | 36195 ft | 488 kts | 272° |
| 2026-04-29 22:30 | 53.01458 | -15.83741 | 36194 ft | 487 kts | 272° |
| 2026-04-29 22:31 | 53.01608 | -15.94938 | 36194 ft | 488 kts | 272° |
| 2026-04-29 22:31 | 53.01750 | -16.06199 | 36202 ft | 488 kts | 272° |
| 2026-04-29 22:32 | 53.01881 | -16.17467 | 36187 ft | 487 kts | 272° |
| 2026-04-29 22:32 | 53.02002 | -16.28720 | 36183 ft | 486 kts | 272° |
| 2026-04-29 22:33 | 53.02112 | -16.39966 | 36179 ft | 486 kts | 272° |
| 2026-04-29 22:33 | 53.02208 | -16.51111 | 36181 ft | 485 kts | 272° |
| 2026-04-29 22:34 | 53.02296 | -16.62303 | 36184 ft | 484 kts | 272° |
| 2026-04-29 22:34 | 53.02373 | -16.73480 | 36186 ft | 483 kts | 272° |
| 2026-04-29 22:35 | 53.02439 | -16.84635 | 36187 ft | 483 kts | 272° |
| 2026-04-29 22:35 | 53.02495 | -16.95796 | 36182 ft | 483 kts | 272° |
| 2026-04-29 22:36 | 53.02541 | -17.06956 | 36183 ft | 483 kts | 272° |
| 2026-04-29 22:36 | 53.02576 | -17.18107 | 36177 ft | 483 kts | 272° |
| 2026-04-29 22:37 | 53.02600 | -17.29188 | 36177 ft | 482 kts | 272° |
| 2026-04-29 22:37 | 53.02614 | -17.40327 | 36172 ft | 482 kts | 272° |
| 2026-04-29 22:38 | 53.02618 | -17.51463 | 36174 ft | 481 kts | 271° |
| 2026-04-29 22:38 | 53.02612 | -17.62566 | 36176 ft | 481 kts | 271° |
| 2026-04-29 22:39 | 53.02595 | -17.73675 | 36174 ft | 480 kts | 271° |
| 2026-04-29 22:39 | 53.02568 | -17.84767 | 36129 ft | 480 kts | 271° |
| 2026-04-29 22:40 | 53.02531 | -17.95848 | 36129 ft | 480 kts | 271° |
| 2026-04-29 22:40 | 53.02483 | -18.06853 | 36137 ft | 478 kts | 271° |
| 2026-04-29 22:41 | 53.02424 | -18.17905 | 36125 ft | 477 kts | 271° |
| 2026-04-29 22:41 | 53.02357 | -18.28929 | 36117 ft | 476 kts | 271° |
| 2026-04-29 22:42 | 53.02279 | -18.39903 | 36112 ft | 475 kts | 271° |
| 2026-04-29 22:42 | 53.02192 | -18.50863 | 36117 ft | 473 kts | 270° |
| 2026-04-29 22:43 | 53.02095 | -18.61779 | 36120 ft | 472 kts | 270° |
| 2026-04-29 22:43 | 53.01989 | -18.72601 | 36116 ft | 471 kts | 270° |
| 2026-04-29 22:44 | 53.01872 | -18.83498 | 36121 ft | 470 kts | 270° |
| 2026-04-29 22:44 | 53.01746 | -18.94351 | 36125 ft | 470 kts | 270° |
| 2026-04-29 22:45 | 53.01610 | -19.05199 | 36122 ft | 469 kts | 270° |
| 2026-04-29 22:45 | 53.01464 | -19.15976 | 36114 ft | 469 kts | 270° |
| 2026-04-29 22:46 | 53.01308 | -19.26808 | 36113 ft | 469 kts | 269° |
| 2026-04-29 22:46 | 53.01143 | -19.37645 | 36111 ft | 469 kts | 269° |
| 2026-04-29 22:47 | 53.00968 | -19.48470 | 36109 ft | 468 kts | 269° |
| 2026-04-29 22:47 | 53.00783 | -19.59271 | 36113 ft | 467 kts | 269° |
| 2026-04-29 22:48 | 53.00589 | -19.70046 | 36105 ft | 467 kts | 269° |
| 2026-04-29 22:48 | 53.00385 | -19.80815 | 36103 ft | 466 kts | 269° |
| 2026-04-29 22:49 | 53.00174 | -19.91566 | 36100 ft | 465 kts | 269° |
| 2026-04-29 22:49 | 52.99991 | -20.02251 | 36099 ft | 465 kts | 271° |
| 2026-04-29 22:50 | 53.00297 | -20.12971 | 36101 ft | 464 kts | 275° |
| 2026-04-29 22:50 | 53.00854 | -20.23622 | 36093 ft | 462 kts | 275° |
| 2026-04-29 22:51 | 53.01370 | -20.34252 | 36098 ft | 461 kts | 274° |
| 2026-04-29 22:51 | 53.02010 | -20.50154 | 36096 ft | 459 kts | 274° |
| 2026-04-29 22:52 | 53.02399 | -20.60677 | 36093 ft | 459 kts | 274° |
| 2026-04-29 22:52 | 53.02781 | -20.71263 | 36092 ft | 458 kts | 273° |
| 2026-04-29 22:53 | 53.03156 | -20.81812 | 36093 ft | 458 kts | 273° |
| 2026-04-29 22:53 | 53.03523 | -20.92379 | 36100 ft | 457 kts | 273° |
| 2026-04-29 22:54 | 53.03879 | -21.02934 | 36090 ft | 457 kts | 273° |
| 2026-04-29 22:54 | 53.04226 | -21.13432 | 36096 ft | 458 kts | 273° |
| 2026-04-29 22:55 | 53.04564 | -21.24009 | 36088 ft | 457 kts | 272° |
| 2026-04-29 22:55 | 53.04891 | -21.34566 | 36089 ft | 457 kts | 272° |
| 2026-04-29 22:56 | 53.05210 | -21.45126 | 36079 ft | 457 kts | 272° |
| 2026-04-29 22:56 | 53.05518 | -21.55601 | 36085 ft | 456 kts | 272° |
| 2026-04-29 22:57 | 53.05818 | -21.66140 | 36082 ft | 456 kts | 272° |
| 2026-04-29 22:57 | 53.06109 | -21.76672 | 36082 ft | 455 kts | 272° |
| 2026-04-29 22:58 | 53.06389 | -21.87194 | 36084 ft | 455 kts | 271° |
| 2026-04-29 22:58 | 53.06659 | -21.97632 | 36070 ft | 455 kts | 271° |
| 2026-04-29 22:59 | 53.06921 | -22.08163 | 36011 ft | 455 kts | 271° |
| 2026-04-29 22:59 | 53.07174 | -22.18649 | 36000 ft | 453 kts | 271° |
| 2026-04-29 23:00 | 53.07377 | -22.27353 | 35997 ft | 452 kts | 271° |
| 2026-04-29 23:00 | 53.07648 | -22.39497 | 35996 ft | 450 kts | 270° |
| 2026-04-29 23:01 | 53.07834 | -22.48193 | 35997 ft | 449 kts | 270° |
| 2026-04-29 23:01 | 53.08048 | -22.58495 | 35998 ft | 448 kts | 270° |
| 2026-04-29 23:02 | 53.08252 | -22.68847 | 35973 ft | 448 kts | 270° |
| 2026-04-29 23:02 | 53.08448 | -22.79208 | 35961 ft | 447 kts | 270° |
| 2026-04-29 23:03 | 53.08634 | -22.89554 | 35953 ft | 447 kts | 270° |
| 2026-04-29 23:03 | 53.08812 | -22.99886 | 35957 ft | 446 kts | 270° |
| 2026-04-29 23:04 | 53.08980 | -23.10156 | 35954 ft | 446 kts | 270° |
| 2026-04-29 23:04 | 53.09141 | -23.20475 | 35955 ft | 446 kts | 270° |
| 2026-04-29 23:05 | 53.09292 | -23.30811 | 35943 ft | 446 kts | 269° |
| 2026-04-29 23:05 | 53.09434 | -23.41130 | 35935 ft | 446 kts | 269° |
| 2026-04-29 23:06 | 53.09567 | -23.51442 | 35935 ft | 446 kts | 269° |
| 2026-04-29 23:06 | 53.09691 | -23.61746 | 35937 ft | 445 kts | 269° |
| 2026-04-29 23:07 | 53.09806 | -23.71976 | 35934 ft | 445 kts | 269° |
| 2026-04-29 23:07 | 53.09911 | -23.82259 | 35936 ft | 444 kts | 269° |
| 2026-04-29 23:08 | 53.10007 | -23.92543 | 35933 ft | 444 kts | 269° |
| 2026-04-29 23:08 | 53.10095 | -24.02816 | 35935 ft | 443 kts | 268° |
| 2026-04-29 23:09 | 53.10174 | -24.12989 | 35923 ft | 442 kts | 268° |
| 2026-04-29 23:09 | 53.10245 | -24.23219 | 35929 ft | 441 kts | 268° |
| 2026-04-29 23:10 | 53.10305 | -24.33408 | 35923 ft | 439 kts | 268° |
| 2026-04-29 23:10 | 53.10358 | -24.43558 | 35926 ft | 438 kts | 268° |
| 2026-04-29 23:11 | 53.10401 | -24.53704 | 35925 ft | 437 kts | 267° |
| 2026-04-29 23:11 | 53.10436 | -24.63826 | 35926 ft | 437 kts | 267° |
| 2026-04-29 23:12 | 53.10463 | -24.73951 | 35929 ft | 437 kts | 267° |
| 2026-04-29 23:12 | 53.10480 | -24.83996 | 35923 ft | 437 kts | 267° |
| 2026-04-29 23:13 | 53.10489 | -24.94122 | 35916 ft | 437 kts | 267° |
| 2026-04-29 23:13 | 53.10489 | -25.04256 | 35924 ft | 437 kts | 266° |
| 2026-04-29 23:14 | 53.10482 | -25.14373 | 35917 ft | 437 kts | 266° |
| 2026-04-29 23:14 | 53.10465 | -25.24499 | 35901 ft | 437 kts | 266° |
| 2026-04-29 23:15 | 53.10440 | -25.34637 | 35819 ft | 438 kts | 266° |
| 2026-04-29 23:15 | 53.10407 | -25.44761 | 35814 ft | 437 kts | 266° |
| 2026-04-29 23:16 | 53.10365 | -25.54874 | 35805 ft | 436 kts | 266° |
| 2026-04-29 23:16 | 53.10315 | -25.64884 | 35803 ft | 435 kts | 266° |
| 2026-04-29 23:17 | 53.10257 | -25.74927 | 35806 ft | 433 kts | 265° |
| 2026-04-29 23:17 | 53.10189 | -25.84946 | 35804 ft | 433 kts | 265° |
| 2026-04-29 23:18 | 53.10112 | -25.94951 | 35808 ft | 432 kts | 265° |
| 2026-04-29 23:18 | 53.10028 | -26.04951 | 35807 ft | 432 kts | 265° |
| 2026-04-29 23:19 | 53.09938 | -26.14943 | 35804 ft | 431 kts | 265° |
| 2026-04-29 23:19 | 53.09839 | -26.24835 | 35805 ft | 430 kts | 265° |
| 2026-04-29 23:20 | 53.09730 | -26.34786 | 35807 ft | 430 kts | 265° |
| 2026-04-29 23:20 | 53.09613 | -26.44723 | 35805 ft | 429 kts | 264° |
| 2026-04-29 23:21 | 53.09488 | -26.54657 | 35803 ft | 429 kts | 264° |
| 2026-04-29 23:21 | 53.09355 | -26.64592 | 35806 ft | 429 kts | 264° |
| 2026-04-29 23:22 | 53.09214 | -26.74518 | 35809 ft | 429 kts | 264° |
| 2026-04-29 23:22 | 53.09065 | -26.84440 | 35804 ft | 429 kts | 264° |
| 2026-04-29 23:23 | 53.08908 | -26.94360 | 35797 ft | 429 kts | 264° |
| 2026-04-29 23:23 | 53.08743 | -27.04229 | 35796 ft | 429 kts | 264° |
| 2026-04-29 23:24 | 53.08569 | -27.14156 | 35796 ft | 429 kts | 264° |
| 2026-04-29 23:24 | 53.08386 | -27.24076 | 35787 ft | 428 kts | 263° |
| 2026-04-29 23:25 | 53.08196 | -27.33973 | 35785 ft | 428 kts | 263° |
| 2026-04-29 23:25 | 53.07999 | -27.43807 | 35788 ft | 427 kts | 263° |
| 2026-04-29 23:26 | 53.07792 | -27.53684 | 35787 ft | 427 kts | 263° |
| 2026-04-29 23:26 | 53.07578 | -27.63543 | 35786 ft | 426 kts | 263° |
| 2026-04-29 23:27 | 53.07357 | -27.73387 | 35785 ft | 425 kts | 263° |
| 2026-04-29 23:27 | 53.07129 | -27.83222 | 35787 ft | 424 kts | 263° |
| 2026-04-29 23:28 | 53.06892 | -27.93021 | 35783 ft | 424 kts | 262° |
| 2026-04-29 23:28 | 53.06649 | -28.02761 | 35791 ft | 424 kts | 262° |
| 2026-04-29 23:29 | 53.06396 | -28.12564 | 35785 ft | 423 kts | 262° |
| 2026-04-29 23:29 | 53.06134 | -28.22347 | 35784 ft | 423 kts | 262° |
| 2026-04-29 23:30 | 53.05866 | -28.32107 | 35785 ft | 422 kts | 262° |
| 2026-04-29 23:30 | 53.05590 | -28.41862 | 35784 ft | 422 kts | 262° |
| 2026-04-29 23:31 | 53.05306 | -28.51601 | 35787 ft | 422 kts | 262° |
| 2026-04-29 23:31 | 53.05015 | -28.61340 | 35790 ft | 421 kts | 262° |
| 2026-04-29 23:32 | 53.04716 | -28.71036 | 35785 ft | 422 kts | 262° |
| 2026-04-29 23:32 | 53.04408 | -28.80773 | 35788 ft | 422 kts | 262° |
| 2026-04-29 23:33 | 53.04093 | -28.90517 | 35786 ft | 422 kts | 262° |
| 2026-04-29 23:33 | 53.03771 | -29.00253 | 35786 ft | 422 kts | 262° |
| 2026-04-29 23:34 | 53.03439 | -29.10011 | 35794 ft | 423 kts | 261° |
| 2026-04-29 23:34 | 53.03098 | -29.19772 | 35788 ft | 423 kts | 261° |
| 2026-04-29 23:35 | 53.02754 | -29.29472 | 35784 ft | 423 kts | 261° |
| 2026-04-29 23:35 | 53.02398 | -29.39219 | 35784 ft | 423 kts | 261° |
| 2026-04-29 23:36 | 53.02034 | -29.48954 | 35786 ft | 422 kts | 261° |
| 2026-04-29 23:36 | 53.01660 | -29.58692 | 35784 ft | 422 kts | 261° |
| 2026-04-29 23:37 | 53.01282 | -29.68410 | 35783 ft | 421 kts | 261° |
| 2026-04-29 23:37 | 53.00898 | -29.78130 | 35791 ft | 422 kts | 261° |
| 2026-04-29 23:38 | 53.00504 | -29.87845 | 35785 ft | 422 kts | 261° |
| 2026-04-29 23:38 | 53.00103 | -29.97569 | 35786 ft | 422 kts | 261° |
| 2026-04-29 23:39 | 52.99636 | -30.07224 | 35789 ft | 421 kts | 260° |
| 2026-04-29 23:39 | 52.99063 | -30.16919 | 35788 ft | 422 kts | 259° |
| 2026-04-29 23:40 | 52.98479 | -30.26592 | 35785 ft | 421 kts | 259° |
| 2026-04-29 23:40 | 52.97902 | -30.36280 | 35784 ft | 421 kts | 260° |
| 2026-04-29 23:41 | 52.97324 | -30.45969 | 35788 ft | 421 kts | 260° |
| 2026-04-29 23:41 | 52.96737 | -30.55660 | 35787 ft | 423 kts | 260° |
| 2026-04-29 23:42 | 52.96145 | -30.65322 | 35789 ft | 423 kts | 260° |
| 2026-04-29 23:42 | 52.95538 | -30.75056 | 35787 ft | 424 kts | 260° |
| 2026-04-29 23:43 | 52.94924 | -30.84776 | 35792 ft | 424 kts | 260° |
| 2026-04-29 23:43 | 52.94303 | -30.94505 | 35783 ft | 424 kts | 260° |
| 2026-04-29 23:44 | 52.93677 | -31.04184 | 35788 ft | 424 kts | 260° |
| 2026-04-29 23:44 | 52.93040 | -31.13907 | 35787 ft | 425 kts | 260° |
| 2026-04-29 23:45 | 52.92393 | -31.23657 | 35840 ft | 424 kts | 261° |
| 2026-04-29 23:45 | 52.91742 | -31.33342 | 35885 ft | 423 kts | 261° |
| 2026-04-29 23:46 | 52.91084 | -31.42991 | 35903 ft | 424 kts | 261° |
| 2026-04-29 23:46 | 52.90415 | -31.52709 | 35901 ft | 425 kts | 261° |
| 2026-04-29 23:47 | 52.89736 | -31.62457 | 35900 ft | 426 kts | 261° |
| 2026-04-29 23:47 | 52.89046 | -31.72223 | 35896 ft | 427 kts | 261° |
| 2026-04-29 23:48 | 52.88462 | -31.80419 | 35900 ft | 428 kts | 261° |
| 2026-04-29 23:48 | 52.87761 | -31.90149 | 35897 ft | 428 kts | 260° |
| 2026-04-29 23:49 | 52.87048 | -31.99934 | 35896 ft | 428 kts | 261° |
| 2026-04-29 23:49 | 52.86323 | -32.09731 | 35891 ft | 429 kts | 261° |
| 2026-04-29 23:50 | 52.85591 | -32.19533 | 35908 ft | 429 kts | 261° |
| 2026-04-29 23:51 | 52.84481 | -32.34242 | 35909 ft | 430 kts | 261° |
| 2026-04-29 23:51 | 52.83726 | -32.44058 | 35908 ft | 431 kts | 261° |
| 2026-04-29 23:52 | 52.82961 | -32.53902 | 35909 ft | 432 kts | 261° |
| 2026-04-29 23:52 | 52.82189 | -32.63752 | 35907 ft | 432 kts | 261° |
| 2026-04-29 23:53 | 52.81408 | -32.73610 | 35905 ft | 432 kts | 261° |
| 2026-04-29 23:53 | 52.80622 | -32.83401 | 35908 ft | 433 kts | 262° |
| 2026-04-29 23:54 | 52.79821 | -32.93264 | 35909 ft | 433 kts | 262° |
| 2026-04-29 23:54 | 52.79012 | -33.03140 | 35907 ft | 433 kts | 262° |
| 2026-04-29 23:55 | 52.78195 | -33.13018 | 35905 ft | 434 kts | 262° |
| 2026-04-29 23:55 | 52.77371 | -33.22886 | 35906 ft | 434 kts | 262° |
| 2026-04-29 23:56 | 52.76544 | -33.32702 | 35914 ft | 434 kts | 262° |
| 2026-04-29 23:56 | 52.75699 | -33.42578 | 35916 ft | 434 kts | 262° |
| 2026-04-29 23:57 | 52.74846 | -33.52469 | 35919 ft | 435 kts | 262° |
| 2026-04-29 23:57 | 52.73987 | -33.62361 | 35917 ft | 436 kts | 262° |
| 2026-04-29 23:58 | 52.73116 | -33.72252 | 35916 ft | 436 kts | 262° |
| 2026-04-29 23:58 | 52.72233 | -33.82167 | 35915 ft | 437 kts | 262° |
| 2026-04-29 23:59 | 52.71346 | -33.92080 | 35922 ft | 437 kts | 262° |
| 2026-04-29 23:59 | 52.70447 | -34.02028 | 35911 ft | 438 kts | 262° |
| 2026-04-30 00:00 | 52.69538 | -34.11956 | 35912 ft | 438 kts | 262° |
| 2026-04-30 00:00 | 52.68624 | -34.21851 | 35922 ft | 439 kts | 262° |
| 2026-04-30 00:01 | 52.67697 | -34.31794 | 35930 ft | 440 kts | 262° |
| 2026-04-30 00:01 | 52.66759 | -34.41777 | 35927 ft | 441 kts | 262° |
| 2026-04-30 00:02 | 52.65812 | -34.51744 | 35922 ft | 441 kts | 262° |
| 2026-04-30 00:02 | 52.64856 | -34.61727 | 35927 ft | 442 kts | 262° |
| 2026-04-30 00:03 | 52.63888 | -34.71734 | 35923 ft | 442 kts | 263° |
| 2026-04-30 00:03 | 52.62912 | -34.81737 | 35925 ft | 443 kts | 263° |
| 2026-04-30 00:04 | 52.61932 | -34.91709 | 35924 ft | 443 kts | 263° |
| 2026-04-30 00:04 | 52.60937 | -35.01717 | 35927 ft | 443 kts | 263° |
| 2026-04-30 00:05 | 52.59933 | -35.11731 | 35935 ft | 444 kts | 263° |
| 2026-04-30 00:05 | 52.58918 | -35.21762 | 35934 ft | 445 kts | 263° |
| 2026-04-30 00:06 | 52.57892 | -35.31813 | 35941 ft | 447 kts | 264° |
| 2026-04-30 00:06 | 52.56852 | -35.41935 | 35952 ft | 451 kts | 264° |
| 2026-04-30 00:07 | 52.55802 | -35.52064 | 35954 ft | 455 kts | 264° |
| 2026-04-30 00:07 | 52.54719 | -35.62412 | 35972 ft | 457 kts | 264° |
| 2026-04-30 00:08 | 52.53630 | -35.72719 | 36016 ft | 459 kts | 264° |
| 2026-04-30 00:08 | 52.52532 | -35.83011 | 36031 ft | 461 kts | 264° |
| 2026-04-30 00:09 | 52.51413 | -35.93395 | 36027 ft | 462 kts | 263° |
| 2026-04-30 00:09 | 52.50288 | -36.03773 | 36025 ft | 462 kts | 264° |
| 2026-04-30 00:10 | 52.49153 | -36.14151 | 36026 ft | 461 kts | 264° |
| 2026-04-30 00:10 | 52.48013 | -36.24492 | 36027 ft | 460 kts | 264° |
| 2026-04-30 00:11 | 52.46874 | -36.34732 | 36030 ft | 458 kts | 263° |
| 2026-04-30 00:11 | 52.45723 | -36.45011 | 36034 ft | 457 kts | 263° |
| 2026-04-30 00:12 | 52.44563 | -36.55259 | 36034 ft | 457 kts | 263° |
| 2026-04-30 00:12 | 52.43398 | -36.65478 | 36044 ft | 456 kts | 263° |
| 2026-04-30 00:13 | 52.42225 | -36.75692 | 36036 ft | 455 kts | 263° |
| 2026-04-30 00:13 | 52.41045 | -36.85878 | 36038 ft | 455 kts | 263° |
| 2026-04-30 00:14 | 52.39857 | -36.96058 | 36035 ft | 455 kts | 263° |
| 2026-04-30 00:14 | 52.38625 | -37.06519 | 36040 ft | 455 kts | 263° |
| 2026-04-30 00:15 | 52.37426 | -37.16635 | 36035 ft | 456 kts | 263° |
| 2026-04-30 00:15 | 52.36207 | -37.26835 | 36009 ft | 457 kts | 263° |
| 2026-04-30 00:16 | 52.34977 | -37.37043 | 35999 ft | 457 kts | 263° |
| 2026-04-30 00:16 | 52.33738 | -37.47249 | 36000 ft | 458 kts | 263° |
| 2026-04-30 00:17 | 52.32490 | -37.57451 | 35999 ft | 458 kts | 263° |
| 2026-04-30 00:17 | 52.31230 | -37.67667 | 36003 ft | 459 kts | 263° |
| 2026-04-30 00:18 | 52.29959 | -37.77909 | 35999 ft | 459 kts | 263° |
| 2026-04-30 00:18 | 52.28680 | -37.88131 | 36012 ft | 459 kts | 263° |
| 2026-04-30 00:19 | 52.27398 | -37.98297 | 36010 ft | 460 kts | 263° |
| 2026-04-30 00:19 | 52.26101 | -38.08521 | 36010 ft | 460 kts | 263° |
| 2026-04-30 00:20 | 52.24793 | -38.18744 | 36010 ft | 460 kts | 263° |
| 2026-04-30 00:20 | 52.23474 | -38.28975 | 36019 ft | 460 kts | 263° |
| 2026-04-30 00:21 | 52.22145 | -38.39198 | 36016 ft | 460 kts | 263° |
| 2026-04-30 00:21 | 52.20810 | -38.49404 | 36020 ft | 460 kts | 263° |
| 2026-04-30 00:22 | 52.19477 | -38.59533 | 36019 ft | 460 kts | 262° |
| 2026-04-30 00:22 | 52.18125 | -38.69735 | 36017 ft | 460 kts | 262° |
| 2026-04-30 00:23 | 52.16765 | -38.79915 | 36029 ft | 460 kts | 262° |
| 2026-04-30 00:23 | 52.15395 | -38.90093 | 36026 ft | 460 kts | 262° |
| 2026-04-30 00:24 | 52.14017 | -39.00262 | 36030 ft | 460 kts | 262° |
| 2026-04-30 00:24 | 52.12629 | -39.10440 | 36026 ft | 460 kts | 262° |
| 2026-04-30 00:25 | 52.11234 | -39.20616 | 36028 ft | 461 kts | 262° |
| 2026-04-30 00:25 | 52.09826 | -39.30796 | 36030 ft | 462 kts | 262° |
| 2026-04-30 00:26 | 52.08414 | -39.40923 | 36045 ft | 462 kts | 262° |
| 2026-04-30 00:26 | 52.06987 | -39.51108 | 36037 ft | 463 kts | 262° |
| 2026-04-30 00:27 | 52.05547 | -39.61305 | 36038 ft | 464 kts | 262° |
| 2026-04-30 00:27 | 52.04094 | -39.71541 | 36037 ft | 465 kts | 262° |
| 2026-04-30 00:28 | 52.02877 | -39.80052 | 36034 ft | 466 kts | 261° |
| 2026-04-30 00:28 | 52.01154 | -39.92034 | 36058 ft | 467 kts | 261° |
| 2026-04-30 00:29 | 51.99664 | -40.02294 | 36044 ft | 468 kts | 261° |
| 2026-04-30 00:29 | 51.98383 | -40.10840 | 36040 ft | 468 kts | 261° |
| 2026-04-30 00:30 | 51.96815 | -40.21110 | 36048 ft | 468 kts | 261° |
| 2026-04-30 00:30 | 51.95257 | -40.31276 | 36042 ft | 468 kts | 261° |
| 2026-04-30 00:31 | 51.93685 | -40.41507 | 36051 ft | 468 kts | 260° |
| 2026-04-30 00:31 | 51.92106 | -40.51726 | 36054 ft | 467 kts | 260° |
| 2026-04-30 00:32 | 51.90519 | -40.61932 | 36051 ft | 467 kts | 260° |
| 2026-04-30 00:32 | 51.88923 | -40.72136 | 36061 ft | 468 kts | 260° |
| 2026-04-30 00:33 | 51.87315 | -40.82350 | 36053 ft | 468 kts | 260° |
| 2026-04-30 00:33 | 51.85697 | -40.92568 | 36062 ft | 469 kts | 260° |
| 2026-04-30 00:34 | 51.84077 | -41.02736 | 36064 ft | 469 kts | 259° |
| 2026-04-30 00:34 | 51.82438 | -41.12955 | 36062 ft | 470 kts | 259° |
| 2026-04-30 00:35 | 51.80788 | -41.23181 | 36065 ft | 470 kts | 259° |
| 2026-04-30 00:35 | 51.79129 | -41.33402 | 36065 ft | 470 kts | 259° |
| 2026-04-30 00:36 | 51.77463 | -41.43595 | 36075 ft | 470 kts | 259° |
| 2026-04-30 00:36 | 51.75790 | -41.53788 | 36079 ft | 470 kts | 259° |
| 2026-04-30 00:37 | 51.74106 | -41.63984 | 36071 ft | 470 kts | 259° |
| 2026-04-30 00:37 | 51.72424 | -41.74099 | 36073 ft | 469 kts | 259° |
| 2026-04-30 00:38 | 51.70724 | -41.84250 | 36080 ft | 469 kts | 259° |
| 2026-04-30 00:38 | 51.69018 | -41.94396 | 36081 ft | 468 kts | 259° |
| 2026-04-30 00:39 | 51.67306 | -42.04509 | 36085 ft | 468 kts | 259° |
| 2026-04-30 00:39 | 51.65585 | -42.14622 | 36082 ft | 468 kts | 259° |
| 2026-04-30 00:40 | 51.63854 | -42.24729 | 36090 ft | 468 kts | 258° |
| 2026-04-30 00:40 | 51.62118 | -42.34821 | 36091 ft | 468 kts | 258° |
| 2026-04-30 00:41 | 51.60379 | -42.44864 | 36093 ft | 468 kts | 258° |
| 2026-04-30 00:41 | 51.58622 | -42.54945 | 36092 ft | 468 kts | 258° |
| 2026-04-30 00:42 | 51.56855 | -42.65035 | 36100 ft | 468 kts | 258° |
| 2026-04-30 00:42 | 51.55080 | -42.75114 | 36099 ft | 469 kts | 258° |
| 2026-04-30 00:43 | 51.53292 | -42.85209 | 36104 ft | 470 kts | 258° |
| 2026-04-30 00:43 | 51.51504 | -42.95246 | 36102 ft | 470 kts | 257° |
| 2026-04-30 00:44 | 51.49696 | -43.05333 | 36109 ft | 470 kts | 257° |
| 2026-04-30 00:44 | 51.47876 | -43.15433 | 36113 ft | 471 kts | 257° |
| 2026-04-30 00:45 | 51.46049 | -43.25522 | 36109 ft | 471 kts | 257° |
| 2026-04-30 00:45 | 51.44208 | -43.35628 | 36108 ft | 472 kts | 257° |
| 2026-04-30 00:46 | 51.42358 | -43.45728 | 36120 ft | 471 kts | 257° |
| 2026-04-30 00:46 | 51.40504 | -43.55792 | 36119 ft | 471 kts | 257° |
| 2026-04-30 00:47 | 51.38653 | -43.65796 | 36114 ft | 471 kts | 257° |
| 2026-04-30 00:47 | 51.36780 | -43.75852 | 36129 ft | 470 kts | 257° |
| 2026-04-30 00:48 | 51.34904 | -43.85872 | 36128 ft | 470 kts | 257° |
| 2026-04-30 00:48 | 51.33022 | -43.95879 | 36122 ft | 470 kts | 257° |
| 2026-04-30 00:49 | 51.31130 | -44.05882 | 36136 ft | 469 kts | 256° |
| 2026-04-30 00:49 | 51.29231 | -44.15862 | 36143 ft | 469 kts | 256° |
| 2026-04-30 00:50 | 51.27324 | -44.25831 | 36141 ft | 469 kts | 256° |
| 2026-04-30 00:50 | 51.25423 | -44.35731 | 36132 ft | 468 kts | 256° |
| 2026-04-30 00:51 | 51.23505 | -44.45658 | 36148 ft | 468 kts | 256° |
| 2026-04-30 00:51 | 51.21579 | -44.55572 | 36148 ft | 468 kts | 256° |
| 2026-04-30 00:52 | 51.19644 | -44.65482 | 36148 ft | 468 kts | 256° |
| 2026-04-30 00:52 | 51.17697 | -44.75411 | 36152 ft | 469 kts | 256° |
| 2026-04-30 00:53 | 51.15742 | -44.85333 | 36161 ft | 469 kts | 256° |
| 2026-04-30 00:53 | 51.13784 | -44.95203 | 36157 ft | 470 kts | 255° |
| 2026-04-30 00:54 | 51.11806 | -45.05121 | 36159 ft | 470 kts | 255° |
| 2026-04-30 00:54 | 51.09820 | -45.15036 | 36167 ft | 470 kts | 255° |
| 2026-04-30 00:55 | 51.07826 | -45.24941 | 36163 ft | 470 kts | 255° |
| 2026-04-30 00:55 | 51.04814 | -45.39794 | 36170 ft | 468 kts | 255° |
| 2026-04-30 00:56 | 51.02814 | -45.49610 | 36188 ft | 467 kts | 255° |
| 2026-04-30 00:56 | 51.00806 | -45.59412 | 36214 ft | 467 kts | 255° |
| 2026-04-30 00:57 | 50.98788 | -45.69221 | 36225 ft | 468 kts | 255° |
| 2026-04-30 00:57 | 50.96768 | -45.78986 | 36221 ft | 469 kts | 255° |
| 2026-04-30 00:58 | 50.94724 | -45.88815 | 36223 ft | 469 kts | 254° |
| 2026-04-30 00:58 | 50.92673 | -45.98635 | 36224 ft | 469 kts | 254° |
| 2026-04-30 00:59 | 50.90609 | -46.08467 | 36227 ft | 469 kts | 254° |
| 2026-04-30 00:59 | 50.88541 | -46.18269 | 36223 ft | 469 kts | 254° |
| 2026-04-30 01:00 | 50.86465 | -46.28059 | 36230 ft | 469 kts | 253° |
| 2026-04-30 01:00 | 50.84381 | -46.37836 | 36229 ft | 468 kts | 253° |
| 2026-04-30 01:01 | 50.82302 | -46.47544 | 36230 ft | 468 kts | 253° |
| 2026-04-30 01:01 | 50.80206 | -46.57290 | 36230 ft | 468 kts | 253° |
| 2026-04-30 01:02 | 50.78101 | -46.67032 | 36231 ft | 467 kts | 253° |
| 2026-04-30 01:02 | 50.75990 | -46.76755 | 36234 ft | 467 kts | 253° |
| 2026-04-30 01:03 | 50.73876 | -46.86441 | 36238 ft | 466 kts | 253° |
| 2026-04-30 01:03 | 50.71756 | -46.96111 | 36244 ft | 466 kts | 253° |
| 2026-04-30 01:04 | 50.69637 | -47.05738 | 36239 ft | 467 kts | 253° |
| 2026-04-30 01:04 | 50.67500 | -47.15398 | 36240 ft | 466 kts | 253° |
| 2026-04-30 01:05 | 50.65350 | -47.25065 | 36238 ft | 466 kts | 252° |
| 2026-04-30 01:05 | 50.63198 | -47.34705 | 36243 ft | 466 kts | 252° |
| 2026-04-30 01:06 | 50.61039 | -47.44337 | 36253 ft | 466 kts | 252° |
| 2026-04-30 01:06 | 50.58872 | -47.53947 | 36248 ft | 466 kts | 252° |
| 2026-04-30 01:07 | 50.56710 | -47.63493 | 36248 ft | 466 kts | 252° |
| 2026-04-30 01:07 | 50.54528 | -47.73089 | 36249 ft | 466 kts | 252° |
| 2026-04-30 01:08 | 50.52337 | -47.82679 | 36251 ft | 466 kts | 252° |
| 2026-04-30 01:08 | 50.50136 | -47.92269 | 36248 ft | 466 kts | 252° |
| 2026-04-30 01:09 | 50.47925 | -48.01858 | 36258 ft | 467 kts | 252° |
| 2026-04-30 01:09 | 50.45706 | -48.11447 | 36261 ft | 467 kts | 251° |
| 2026-04-30 01:10 | 50.43493 | -48.20958 | 36257 ft | 467 kts | 251° |
| 2026-04-30 01:10 | 50.41258 | -48.30528 | 36256 ft | 467 kts | 251° |
| 2026-04-30 01:11 | 50.39017 | -48.40081 | 36262 ft | 466 kts | 251° |
| 2026-04-30 01:11 | 50.36768 | -48.49613 | 36256 ft | 466 kts | 251° |
| 2026-04-30 01:12 | 50.34513 | -48.59137 | 36263 ft | 465 kts | 251° |
| 2026-04-30 01:12 | 50.32268 | -48.68580 | 36268 ft | 465 kts | 251° |
| 2026-04-30 01:13 | 50.30002 | -48.78065 | 36265 ft | 465 kts | 251° |
| 2026-04-30 01:13 | 50.28117 | -48.85930 | 36268 ft | 464 kts | 251° |
| 2026-04-30 01:14 | 50.25845 | -48.95367 | 36266 ft | 463 kts | 250° |
| 2026-04-30 01:14 | 50.23570 | -49.04781 | 36267 ft | 462 kts | 250° |
| 2026-04-30 01:15 | 50.21291 | -49.14166 | 36268 ft | 461 kts | 250° |
| 2026-04-30 01:15 | 50.19010 | -49.23513 | 36275 ft | 460 kts | 250° |
| 2026-04-30 01:16 | 50.16730 | -49.32827 | 36293 ft | 459 kts | 250° |
| 2026-04-30 01:16 | 50.14456 | -49.42076 | 36300 ft | 459 kts | 250° |
| 2026-04-30 01:17 | 50.12159 | -49.51384 | 36293 ft | 460 kts | 250° |
| 2026-04-30 01:17 | 50.09848 | -49.60701 | 36296 ft | 461 kts | 249° |
| 2026-04-30 01:18 | 50.07530 | -49.70013 | 36296 ft | 461 kts | 249° |
| 2026-04-30 01:18 | 50.05201 | -49.79328 | 36294 ft | 462 kts | 249° |
| 2026-04-30 01:19 | 50.02877 | -49.88582 | 36294 ft | 462 kts | 249° |
| 2026-04-30 01:19 | 50.00527 | -49.97911 | 36298 ft | 463 kts | 249° |
| 2026-04-30 01:20 | 49.98216 | -50.07258 | 36299 ft | 463 kts | 250° |
| 2026-04-30 01:20 | 49.95983 | -50.16620 | 36307 ft | 462 kts | 250° |
| 2026-04-30 01:21 | 49.93738 | -50.26005 | 36300 ft | 463 kts | 250° |
| 2026-04-30 01:21 | 49.91493 | -50.35301 | 36300 ft | 462 kts | 250° |
| 2026-04-30 01:22 | 49.89224 | -50.44631 | 36299 ft | 462 kts | 250° |
| 2026-04-30 01:22 | 49.86946 | -50.53954 | 36322 ft | 461 kts | 250° |
| 2026-04-30 01:23 | 49.84667 | -50.63245 | 36314 ft | 461 kts | 249° |
| 2026-04-30 01:23 | 49.82379 | -50.72521 | 36313 ft | 461 kts | 249° |
| 2026-04-30 01:24 | 49.80087 | -50.81785 | 36312 ft | 460 kts | 249° |
| 2026-04-30 01:24 | 49.77789 | -50.91036 | 36316 ft | 460 kts | 249° |
| 2026-04-30 01:25 | 49.75488 | -51.00263 | 36317 ft | 459 kts | 249° |
| 2026-04-30 01:25 | 49.73194 | -51.09419 | 36322 ft | 459 kts | 249° |
| 2026-04-30 01:26 | 49.70881 | -51.18614 | 36315 ft | 459 kts | 248° |
| 2026-04-30 01:26 | 49.68563 | -51.27790 | 36308 ft | 458 kts | 248° |
| 2026-04-30 01:27 | 49.66240 | -51.36952 | 36321 ft | 458 kts | 248° |
| 2026-04-30 01:27 | 49.63911 | -51.46097 | 36326 ft | 457 kts | 248° |
| 2026-04-30 01:28 | 49.61585 | -51.55198 | 36321 ft | 456 kts | 248° |
| 2026-04-30 01:28 | 49.59247 | -51.64311 | 36319 ft | 456 kts | 248° |
| 2026-04-30 01:29 | 49.56916 | -51.73356 | 36326 ft | 456 kts | 248° |
| 2026-04-30 01:29 | 49.54580 | -51.82390 | 36324 ft | 455 kts | 248° |
| 2026-04-30 01:30 | 49.52228 | -51.91449 | 36316 ft | 455 kts | 248° |
| 2026-04-30 01:30 | 49.49873 | -52.00485 | 36321 ft | 455 kts | 247° |
| 2026-04-30 01:31 | 49.47336 | -52.09404 | 36323 ft | 455 kts | 244° |
| 2026-04-30 01:31 | 49.44683 | -52.18226 | 36322 ft | 454 kts | 244° |
| 2026-04-30 01:32 | 49.42033 | -52.27046 | 36323 ft | 455 kts | 244° |
| 2026-04-30 01:32 | 49.39395 | -52.35885 | 36324 ft | 454 kts | 244° |
| 2026-04-30 01:33 | 49.36765 | -52.44710 | 36335 ft | 454 kts | 244° |
| 2026-04-30 01:33 | 49.34147 | -52.53469 | 36337 ft | 454 kts | 244° |
| 2026-04-30 01:34 | 49.31505 | -52.62277 | 36325 ft | 454 kts | 244° |
| 2026-04-30 01:34 | 49.28859 | -52.71063 | 36329 ft | 454 kts | 244° |
| 2026-04-30 01:35 | 49.26198 | -52.79862 | 36310 ft | 455 kts | 244° |
| 2026-04-30 01:35 | 49.23532 | -52.88652 | 36315 ft | 454 kts | 244° |
| 2026-04-30 01:36 | 49.20863 | -52.97420 | 36299 ft | 454 kts | 244° |
| 2026-04-30 01:36 | 49.18205 | -53.06119 | 36297 ft | 454 kts | 244° |
| 2026-04-30 01:37 | 49.15530 | -53.14842 | 36300 ft | 453 kts | 244° |
| 2026-04-30 01:37 | 49.12853 | -53.23544 | 36315 ft | 452 kts | 244° |
| 2026-04-30 01:38 | 49.10169 | -53.32234 | 36301 ft | 452 kts | 243° |
| 2026-04-30 01:38 | 49.07482 | -53.40906 | 36294 ft | 451 kts | 243° |
| 2026-04-30 01:39 | 49.04793 | -53.49554 | 36296 ft | 451 kts | 243° |
| 2026-04-30 01:39 | 49.02115 | -53.58136 | 36296 ft | 451 kts | 243° |
| 2026-04-30 01:40 | 48.99415 | -53.66759 | 36291 ft | 451 kts | 243° |
| 2026-04-30 01:40 | 48.96709 | -53.75372 | 36296 ft | 450 kts | 243° |
| 2026-04-30 01:41 | 48.93998 | -53.83972 | 36297 ft | 450 kts | 243° |
| 2026-04-30 01:41 | 48.91278 | -53.92568 | 36300 ft | 451 kts | 243° |
| 2026-04-30 01:42 | 48.88549 | -54.01161 | 36293 ft | 451 kts | 243° |
| 2026-04-30 01:42 | 48.85827 | -54.09703 | 36288 ft | 452 kts | 242° |
| 2026-04-30 01:43 | 48.83082 | -54.18293 | 36282 ft | 451 kts | 242° |
| 2026-04-30 01:43 | 48.80336 | -54.26850 | 36282 ft | 451 kts | 242° |
| 2026-04-30 01:44 | 48.77588 | -54.35390 | 36284 ft | 450 kts | 242° |
| 2026-04-30 01:44 | 48.74833 | -54.43920 | 36286 ft | 449 kts | 242° |
| 2026-04-30 01:45 | 48.72099 | -54.52359 | 36287 ft | 449 kts | 242° |
| 2026-04-30 01:45 | 48.69345 | -54.60834 | 36284 ft | 448 kts | 242° |
| 2026-04-30 01:46 | 48.66587 | -54.69288 | 36286 ft | 447 kts | 242° |
| 2026-04-30 01:46 | 48.63826 | -54.77722 | 36283 ft | 447 kts | 242° |
| 2026-04-30 01:47 | 48.61059 | -54.86151 | 36286 ft | 447 kts | 242° |
| 2026-04-30 01:47 | 48.58287 | -54.94566 | 36289 ft | 447 kts | 242° |
| 2026-04-30 01:48 | 48.55509 | -55.02970 | 36288 ft | 447 kts | 242° |
| 2026-04-30 01:48 | 48.52724 | -55.11364 | 36297 ft | 447 kts | 242° |
| 2026-04-30 01:49 | 48.49937 | -55.19740 | 36295 ft | 447 kts | 242° |
| 2026-04-30 01:49 | 48.47139 | -55.28124 | 36296 ft | 447 kts | 242° |
| 2026-04-30 01:50 | 48.44356 | -55.36432 | 36297 ft | 447 kts | 242° |
| 2026-04-30 01:50 | 48.41548 | -55.44789 | 36297 ft | 446 kts | 242° |
| 2026-04-30 01:51 | 48.38739 | -55.53124 | 36296 ft | 446 kts | 241° |
| 2026-04-30 01:51 | 48.35941 | -55.61396 | 36296 ft | 446 kts | 241° |
| 2026-04-30 01:52 | 48.33125 | -55.69696 | 36295 ft | 446 kts | 241° |
| 2026-04-30 01:52 | 48.30297 | -55.78005 | 36292 ft | 446 kts | 241° |
| 2026-04-30 01:53 | 48.27468 | -55.86288 | 36294 ft | 445 kts | 241° |
| 2026-04-30 01:53 | 48.24637 | -55.94554 | 36296 ft | 445 kts | 241° |
| 2026-04-30 01:54 | 48.21794 | -56.02827 | 36297 ft | 445 kts | 241° |
| 2026-04-30 01:54 | 48.18951 | -56.11072 | 36295 ft | 445 kts | 241° |
| 2026-04-30 01:55 | 48.16101 | -56.19315 | 36296 ft | 445 kts | 241° |
| 2026-04-30 01:55 | 48.13254 | -56.27515 | 36290 ft | 445 kts | 241° |
| 2026-04-30 01:56 | 48.10389 | -56.35747 | 36285 ft | 445 kts | 241° |
| 2026-04-30 01:56 | 48.07540 | -56.43910 | 36285 ft | 445 kts | 241° |
| 2026-04-30 01:57 | 48.04670 | -56.52103 | 36286 ft | 445 kts | 241° |
| 2026-04-30 01:57 | 48.01792 | -56.60289 | 36292 ft | 445 kts | 241° |
| 2026-04-30 01:58 | 47.98909 | -56.68469 | 36295 ft | 444 kts | 241° |
| 2026-04-30 01:58 | 47.96027 | -56.76620 | 36298 ft | 444 kts | 241° |
| 2026-04-30 01:59 | 47.92179 | -56.87468 | 36294 ft | 444 kts | 242° |
| 2026-04-30 02:00 | 47.89285 | -56.95592 | 36296 ft | 444 kts | 242° |
| 2026-04-30 02:00 | 47.86382 | -57.03720 | 36293 ft | 444 kts | 242° |
| 2026-04-30 02:01 | 47.83491 | -57.11790 | 36298 ft | 444 kts | 242° |
| 2026-04-30 02:01 | 47.80583 | -57.19878 | 36295 ft | 443 kts | 242° |
| 2026-04-30 02:02 | 47.77664 | -57.27967 | 36299 ft | 443 kts | 242° |
| 2026-04-30 02:02 | 47.74742 | -57.36048 | 36298 ft | 443 kts | 242° |
| 2026-04-30 02:03 | 47.71814 | -57.44118 | 36293 ft | 443 kts | 242° |
| 2026-04-30 02:03 | 47.68906 | -57.52109 | 36286 ft | 442 kts | 242° |
| 2026-04-30 02:04 | 47.65975 | -57.60144 | 36286 ft | 442 kts | 242° |
| 2026-04-30 02:04 | 47.63042 | -57.68157 | 36289 ft | 442 kts | 242° |
| 2026-04-30 02:05 | 47.60101 | -57.76164 | 36283 ft | 441 kts | 242° |
| 2026-04-30 02:05 | 47.57165 | -57.84138 | 36287 ft | 441 kts | 242° |
| 2026-04-30 02:06 | 47.54236 | -57.92068 | 36284 ft | 441 kts | 242° |
| 2026-04-30 02:06 | 47.51287 | -58.00028 | 36288 ft | 441 kts | 242° |
| 2026-04-30 02:07 | 47.48329 | -58.07987 | 36285 ft | 441 kts | 242° |
| 2026-04-30 02:07 | 47.45369 | -58.15928 | 36286 ft | 441 kts | 242° |
| 2026-04-30 02:08 | 47.42404 | -58.23860 | 36286 ft | 440 kts | 242° |
| 2026-04-30 02:08 | 47.39456 | -58.31722 | 36278 ft | 441 kts | 242° |
| 2026-04-30 02:09 | 47.36477 | -58.39642 | 36276 ft | 441 kts | 242° |
| 2026-04-30 02:09 | 47.33496 | -58.47547 | 36277 ft | 441 kts | 241° |
| 2026-04-30 02:10 | 47.30508 | -58.55445 | 36275 ft | 441 kts | 241° |
| 2026-04-30 02:10 | 47.27510 | -58.63345 | 36277 ft | 441 kts | 241° |
| 2026-04-30 02:11 | 47.24512 | -58.71227 | 36275 ft | 441 kts | 241° |
| 2026-04-30 02:11 | 47.21523 | -58.79060 | 36277 ft | 442 kts | 241° |
| 2026-04-30 02:12 | 47.18507 | -58.86938 | 36277 ft | 442 kts | 241° |
| 2026-04-30 02:12 | 47.15486 | -58.94810 | 36267 ft | 442 kts | 241° |
| 2026-04-30 02:13 | 47.12454 | -59.02684 | 36267 ft | 442 kts | 241° |
| 2026-04-30 02:13 | 47.09420 | -59.10538 | 36267 ft | 442 kts | 241° |
| 2026-04-30 02:14 | 47.06388 | -59.18373 | 36266 ft | 441 kts | 241° |
| 2026-04-30 02:14 | 47.03369 | -59.26148 | 36269 ft | 441 kts | 240° |
| 2026-04-30 02:15 | 47.00322 | -59.33968 | 36269 ft | 441 kts | 240° |
| 2026-04-30 02:15 | 46.97273 | -59.41771 | 36266 ft | 441 kts | 240° |
| 2026-04-30 02:16 | 46.94216 | -59.49573 | 36269 ft | 442 kts | 240° |
| 2026-04-30 02:16 | 46.91154 | -59.57368 | 36267 ft | 441 kts | 240° |
| 2026-04-30 02:17 | 46.88089 | -59.65147 | 36268 ft | 441 kts | 240° |
| 2026-04-30 02:17 | 46.85018 | -59.72923 | 36269 ft | 442 kts | 240° |
| 2026-04-30 02:18 | 46.81961 | -59.80638 | 36267 ft | 442 kts | 240° |
| 2026-04-30 02:18 | 46.78871 | -59.88413 | 36257 ft | 442 kts | 240° |
| 2026-04-30 02:19 | 46.75780 | -59.96171 | 36258 ft | 442 kts | 240° |
| 2026-04-30 02:19 | 46.72678 | -60.03933 | 36261 ft | 442 kts | 240° |
| 2026-04-30 02:20 | 46.69573 | -60.11678 | 36257 ft | 442 kts | 239° |
| 2026-04-30 02:20 | 46.66484 | -60.19367 | 36256 ft | 442 kts | 239° |
| 2026-04-30 02:21 | 46.63369 | -60.27095 | 36262 ft | 442 kts | 239° |
| 2026-04-30 02:21 | 46.60254 | -60.34805 | 36258 ft | 442 kts | 239° |
| 2026-04-30 02:22 | 46.57129 | -60.42508 | 36258 ft | 442 kts | 239° |
| 2026-04-30 02:22 | 46.54003 | -60.50197 | 36256 ft | 441 kts | 239° |
| 2026-04-30 02:23 | 46.50873 | -60.57878 | 36260 ft | 441 kts | 239° |
| 2026-04-30 02:23 | 46.47758 | -60.65499 | 36255 ft | 441 kts | 239° |
| 2026-04-30 02:24 | 46.44625 | -60.73145 | 36257 ft | 441 kts | 239° |
| 2026-04-30 02:24 | 46.41485 | -60.80783 | 36248 ft | 441 kts | 239° |
| 2026-04-30 02:25 | 46.38341 | -60.88413 | 36248 ft | 441 kts | 238° |
| 2026-04-30 02:25 | 46.35189 | -60.96039 | 36253 ft | 441 kts | 238° |
| 2026-04-30 02:26 | 46.32057 | -61.03598 | 36248 ft | 440 kts | 238° |
| 2026-04-30 02:26 | 46.28887 | -61.11226 | 36246 ft | 439 kts | 238° |
| 2026-04-30 02:27 | 46.25736 | -61.18787 | 36240 ft | 439 kts | 238° |
| 2026-04-30 02:27 | 46.22598 | -61.26296 | 36240 ft | 438 kts | 238° |
| 2026-04-30 02:28 | 46.19446 | -61.33820 | 36236 ft | 438 kts | 237° |
| 2026-04-30 02:28 | 46.16290 | -61.41331 | 36237 ft | 437 kts | 237° |
| 2026-04-30 02:29 | 46.13133 | -61.48826 | 36231 ft | 436 kts | 237° |
| 2026-04-30 02:29 | 46.09978 | -61.56293 | 36231 ft | 435 kts | 237° |
| 2026-04-30 02:30 | 46.06839 | -61.63706 | 36229 ft | 435 kts | 237° |
| 2026-04-30 02:30 | 46.03684 | -61.71138 | 36233 ft | 435 kts | 237° |
| 2026-04-30 02:31 | 46.00523 | -61.78561 | 36230 ft | 435 kts | 237° |
| 2026-04-30 02:31 | 45.97356 | -61.85978 | 36224 ft | 435 kts | 237° |
| 2026-04-30 02:32 | 45.94200 | -61.93350 | 36217 ft | 435 kts | 237° |
| 2026-04-30 02:32 | 45.91024 | -62.00755 | 36212 ft | 436 kts | 237° |
| 2026-04-30 02:33 | 45.87834 | -62.08168 | 36212 ft | 436 kts | 237° |
| 2026-04-30 02:33 | 45.84640 | -62.15569 | 36212 ft | 436 kts | 237° |
| 2026-04-30 02:34 | 45.81436 | -62.22973 | 36211 ft | 436 kts | 236° |
| 2026-04-30 02:34 | 45.78230 | -62.30366 | 36205 ft | 437 kts | 236° |
| 2026-04-30 02:35 | 45.75012 | -62.37765 | 36199 ft | 437 kts | 236° |
| 2026-04-30 02:35 | 45.71819 | -62.45085 | 36204 ft | 436 kts | 236° |
| 2026-04-30 02:36 | 45.68597 | -62.52447 | 36191 ft | 436 kts | 236° |
| 2026-04-30 02:36 | 45.65381 | -62.59786 | 36194 ft | 436 kts | 236° |
| 2026-04-30 02:37 | 45.62156 | -62.67127 | 36196 ft | 435 kts | 236° |
| 2026-04-30 02:37 | 45.58933 | -62.74446 | 36188 ft | 435 kts | 236° |
| 2026-04-30 02:38 | 45.55708 | -62.81750 | 36182 ft | 435 kts | 236° |
| 2026-04-30 02:38 | 45.52479 | -62.89038 | 36185 ft | 434 kts | 236° |
| 2026-04-30 02:39 | 45.49253 | -62.96302 | 36184 ft | 433 kts | 236° |
| 2026-04-30 02:39 | 45.46045 | -63.03510 | 36190 ft | 432 kts | 236° |
| 2026-04-30 02:40 | 45.42812 | -63.10753 | 36176 ft | 432 kts | 236° |
| 2026-04-30 02:40 | 45.39579 | -63.17979 | 36172 ft | 432 kts | 235° |
| 2026-04-30 02:41 | 45.36364 | -63.25144 | 36166 ft | 432 kts | 235° |
| 2026-04-30 02:41 | 45.33131 | -63.32332 | 36165 ft | 431 kts | 235° |
| 2026-04-30 02:42 | 45.29901 | -63.39497 | 36171 ft | 430 kts | 235° |
| 2026-04-30 02:42 | 45.26666 | -63.46655 | 36166 ft | 430 kts | 235° |
| 2026-04-30 02:43 | 45.23430 | -63.53795 | 36162 ft | 430 kts | 235° |
| 2026-04-30 02:43 | 45.20188 | -63.60931 | 36168 ft | 430 kts | 235° |
| 2026-04-30 02:44 | 45.16943 | -63.68055 | 36167 ft | 430 kts | 235° |
| 2026-04-30 02:44 | 45.13698 | -63.75162 | 36165 ft | 430 kts | 235° |
| 2026-04-30 02:45 | 45.10461 | -63.82236 | 36165 ft | 430 kts | 235° |
| 2026-04-30 02:45 | 45.07205 | -63.89329 | 36168 ft | 429 kts | 234° |
| 2026-04-30 02:46 | 45.03943 | -63.96421 | 36167 ft | 429 kts | 234° |
| 2026-04-30 02:46 | 45.00677 | -64.03502 | 36170 ft | 429 kts | 235° |
| 2026-04-30 02:47 | 44.97961 | -64.09377 | 36161 ft | 429 kts | 235° |
| 2026-04-30 02:47 | 44.94172 | -64.17558 | 36163 ft | 428 kts | 234° |
| 2026-04-30 02:48 | 44.91436 | -64.23446 | 36163 ft | 427 kts | 234° |
| 2026-04-30 02:48 | 44.88194 | -64.30408 | 36170 ft | 427 kts | 234° |
| 2026-04-30 02:49 | 44.84919 | -64.37428 | 36164 ft | 427 kts | 234° |
| 2026-04-30 02:49 | 44.81643 | -64.44431 | 36167 ft | 427 kts | 234° |
| 2026-04-30 02:50 | 44.78363 | -64.51428 | 36164 ft | 427 kts | 234° |
| 2026-04-30 02:50 | 44.75104 | -64.58362 | 36169 ft | 427 kts | 234° |
| 2026-04-30 02:51 | 44.71814 | -64.65343 | 36164 ft | 428 kts | 234° |
| 2026-04-30 02:51 | 44.68516 | -64.72323 | 36166 ft | 428 kts | 234° |
| 2026-04-30 02:52 | 44.65214 | -64.79294 | 36169 ft | 428 kts | 234° |
| 2026-04-30 02:52 | 44.61937 | -64.86202 | 36163 ft | 428 kts | 234° |
| 2026-04-30 02:53 | 44.58628 | -64.93155 | 36168 ft | 428 kts | 235° |
| 2026-04-30 02:53 | 44.55318 | -65.00095 | 36154 ft | 428 kts | 235° |
| 2026-04-30 02:54 | 44.52003 | -65.07029 | 36157 ft | 428 kts | 235° |
| 2026-04-30 02:54 | 44.48684 | -65.13954 | 36145 ft | 428 kts | 235° |
| 2026-04-30 02:55 | 44.45358 | -65.20877 | 36150 ft | 428 kts | 235° |
| 2026-04-30 02:55 | 44.42026 | -65.27793 | 36129 ft | 429 kts | 235° |
| 2026-04-30 02:56 | 44.38696 | -65.34696 | 36142 ft | 428 kts | 235° |
| 2026-04-30 02:56 | 44.35363 | -65.41581 | 36138 ft | 427 kts | 235° |
| 2026-04-30 02:57 | 44.32036 | -65.48440 | 36128 ft | 427 kts | 235° |
| 2026-04-30 02:57 | 44.28722 | -65.55258 | 36128 ft | 426 kts | 235° |
| 2026-04-30 02:58 | 44.25381 | -65.62111 | 36122 ft | 426 kts | 235° |
| 2026-04-30 02:58 | 44.22047 | -65.68936 | 36121 ft | 426 kts | 235° |
| 2026-04-30 02:59 | 44.18706 | -65.75758 | 36116 ft | 426 kts | 236° |
| 2026-04-30 02:59 | 44.15363 | -65.82575 | 36113 ft | 426 kts | 236° |
| 2026-04-30 03:00 | 44.12005 | -65.89403 | 36115 ft | 427 kts | 236° |
| 2026-04-30 03:00 | 44.08663 | -65.96181 | 36104 ft | 427 kts | 235° |
| 2026-04-30 03:01 | 44.05299 | -66.02987 | 36102 ft | 427 kts | 235° |
| 2026-04-30 03:01 | 44.01931 | -66.09788 | 36102 ft | 427 kts | 235° |
| 2026-04-30 03:02 | 43.98553 | -66.16589 | 36103 ft | 427 kts | 235° |
| 2026-04-30 03:02 | 43.95174 | -66.23377 | 36101 ft | 427 kts | 235° |
| 2026-04-30 03:03 | 43.91796 | -66.30152 | 36104 ft | 427 kts | 235° |
| 2026-04-30 03:03 | 43.86742 | -66.40251 | 36102 ft | 426 kts | 236° |
| 2026-04-30 03:04 | 43.83359 | -66.46995 | 36099 ft | 425 kts | 236° |
| 2026-04-30 03:04 | 43.79977 | -66.53721 | 36101 ft | 426 kts | 236° |
| 2026-04-30 03:05 | 43.76586 | -66.60452 | 36100 ft | 426 kts | 236° |
| 2026-04-30 03:05 | 43.73216 | -66.67121 | 36097 ft | 426 kts | 237° |
| 2026-04-30 03:06 | 43.69806 | -66.73855 | 36101 ft | 427 kts | 237° |
| 2026-04-30 03:06 | 43.66396 | -66.80578 | 36094 ft | 428 kts | 237° |
| 2026-04-30 03:07 | 43.62972 | -66.87312 | 36093 ft | 428 kts | 237° |
| 2026-04-30 03:07 | 43.59547 | -66.94034 | 36092 ft | 427 kts | 237° |
| 2026-04-30 03:08 | 43.56239 | -67.00756 | 36089 ft | 425 kts | 242° |
| 2026-04-30 03:08 | 43.53674 | -67.08037 | 36087 ft | 421 kts | 250° |
| 2026-04-30 03:09 | 43.51724 | -67.15633 | 36084 ft | 419 kts | 253° |
| 2026-04-30 03:09 | 43.49851 | -67.23245 | 36083 ft | 419 kts | 252° |
| 2026-04-30 03:10 | 43.47837 | -67.30787 | 36084 ft | 418 kts | 251° |
| 2026-04-30 03:10 | 43.45744 | -67.38263 | 36083 ft | 418 kts | 250° |
| 2026-04-30 03:11 | 43.43641 | -67.45660 | 36076 ft | 418 kts | 250° |
| 2026-04-30 03:11 | 43.41520 | -67.53097 | 36074 ft | 417 kts | 250° |
| 2026-04-30 03:12 | 43.39398 | -67.60520 | 36075 ft | 417 kts | 250° |
| 2026-04-30 03:12 | 43.37274 | -67.67933 | 36073 ft | 416 kts | 250° |
| 2026-04-30 03:13 | 43.35149 | -67.75334 | 36074 ft | 416 kts | 250° |
| 2026-04-30 03:13 | 43.33018 | -67.82734 | 36068 ft | 416 kts | 250° |
| 2026-04-30 03:14 | 43.30880 | -67.90138 | 36068 ft | 417 kts | 250° |
| 2026-04-30 03:14 | 43.28747 | -67.97498 | 36064 ft | 417 kts | 250° |
| 2026-04-30 03:15 | 43.26596 | -68.04904 | 36069 ft | 417 kts | 250° |
| 2026-04-30 03:15 | 43.24441 | -68.12303 | 36064 ft | 417 kts | 250° |
| 2026-04-30 03:16 | 43.22286 | -68.19676 | 36055 ft | 416 kts | 250° |
| 2026-04-30 03:16 | 43.20131 | -68.27022 | 36047 ft | 415 kts | 250° |
| 2026-04-30 03:17 | 43.17974 | -68.34360 | 36035 ft | 415 kts | 250° |
| 2026-04-30 03:17 | 43.15814 | -68.41688 | 36037 ft | 414 kts | 250° |
| 2026-04-30 03:18 | 43.13662 | -68.48964 | 36050 ft | 414 kts | 250° |
| 2026-04-30 03:18 | 43.11495 | -68.56277 | 36034 ft | 414 kts | 249° |
| 2026-04-30 03:19 | 43.09329 | -68.63567 | 36052 ft | 413 kts | 249° |
| 2026-04-30 03:19 | 43.07157 | -68.70849 | 36036 ft | 413 kts | 249° |
| 2026-04-30 03:20 | 43.04983 | -68.78119 | 36034 ft | 413 kts | 249° |
| 2026-04-30 03:20 | 43.02806 | -68.85380 | 36029 ft | 412 kts | 249° |
| 2026-04-30 03:21 | 43.00624 | -68.92636 | 36027 ft | 412 kts | 249° |
| 2026-04-30 03:21 | 42.98453 | -68.99833 | 36028 ft | 412 kts | 249° |
| 2026-04-30 03:22 | 42.96267 | -69.07062 | 36029 ft | 412 kts | 249° |
| 2026-04-30 03:22 | 42.94074 | -69.14291 | 36022 ft | 412 kts | 249° |
| 2026-04-30 03:23 | 42.91879 | -69.21513 | 36011 ft | 412 kts | 249° |
| 2026-04-30 03:23 | 42.89677 | -69.28737 | 36011 ft | 412 kts | 249° |
| 2026-04-30 03:24 | 42.87482 | -69.35916 | 36008 ft | 412 kts | 249° |